Bismarck Municipal Airport
KBIS : now visible

Airfield :











YOU CAN JOIN US ON...

 
LOGIN :

Register | Disclaimer

   EN    FR    IT 

 









Legend :    VFR   Marginal VFR   IFR   Intensive IFR   Very Intensive IFR
Visi :
Ceiling :
>= 8 km
>= 3000ft
5 to 8 km
1000 to 3000 ft
1500m to 5 km
500 to 1000 ft
800 to 1500m
200 to 500 ft
< 800m
< 200 ft
Symbols :   Thunderstorms  Fog  Heavy snow  Heavy precipitations  Wind > 20 kt






- Airport Elevation : 1661 ft
- IATA code : BIS


KBIS - Bismarck Municipal

CURRENT METAR :
  • 122152Z 12006KT 8SM OVC013 M11/M13 A2997 RMK AO2 SLP185 T11061133

EXPIRED METARs :
  • 122052Z 13007KT 7SM OVC013 M11/M13 A2997 RMK AO2 SNB28E37 SLP188 P0000 60000 T11111133 56013
  • 121952Z 13007KT 9SM OVC017 M11/M14 A2998 RMK AO2 SLP191 T11111139

TAF KBIS
Valid from the 12 at 18:00 until the 13 at 18:00 UTC


121736Z 1218/1318 13004KT P6SM OVC015
FM130300 15007KT 5SM -SN OVC018
FM130900 18006KT 4SM BR BKN013
FM131400 30007KT P6SM BKN014
FM131700 32012G19KT P6SM BKN011



MET'MAP, your aeronautical weather chart ! - Copyright ORBIFLY December 2007 - Disclaimer

ORBIFLY MET'MAP TEAM :

Programming & Development : Alexandra Zaïnal
Concept & original design : Baudouin d'Aumeries
Assistance for programming : Marc-Olivier Méhu
Technical & hardware support : Manuel Goepfert

Contact : metmap@orbifly.com




SOURCES & CREDITS :

   NOAA       Earth
Advisory